sensor_id;sensor_type;location;lat;lon;timestamp;P1;durP1;ratioP1;P2;durP2;ratioP2
18340;SDS011;9296;48.084;16.352;2022-11-27T00:04:38;14.05;;;8.95;;
18340;SDS011;9296;48.084;16.352;2022-11-27T00:07:06;16.98;;;9.27;;
18340;SDS011;9296;48.084;16.352;2022-11-27T00:09:33;17.15;;;9.95;;
18340;SDS011;9296;48.084;16.352;2022-11-27T00:12:01;16.00;;;9.23;;
18340;SDS011;9296;48.084;16.352;2022-11-27T00:14:28;17.02;;;9.40;;
18340;SDS011;9296;48.084;16.352;2022-11-27T00:19:59;16.35;;;9.23;;
18340;SDS011;9296;48.084;16.352;2022-11-27T00:22:28;17.77;;;9.63;;
18340;SDS011;9296;48.084;16.352;2022-11-27T00:24:55;19.67;;;9.60;;
18340;SDS011;9296;48.084;16.352;2022-11-27T00:27:22;20.42;;;9.60;;
18340;SDS011;9296;48.084;16.352;2022-11-27T00:29:50;17.52;;;9.80;;
18340;SDS011;9296;48.084;16.352;2022-11-27T00:32:17;18.08;;;9.93;;
18340;SDS011;9296;48.084;16.352;2022-11-27T00:34:44;20.60;;;10.75;;
18340;SDS011;9296;48.084;16.352;2022-11-27T00:37:11;18.92;;;9.32;;
18340;SDS011;9296;48.084;16.352;2022-11-27T00:39:40;16.83;;;9.73;;
18340;SDS011;9296;48.084;16.352;2022-11-27T00:42:07;19.15;;;9.80;;
18340;SDS011;9296;48.084;16.352;2022-11-27T00:44:35;17.50;;;9.05;;
18340;SDS011;9296;48.084;16.352;2022-11-27T00:47:02;18.15;;;9.20;;
18340;SDS011;9296;48.084;16.352;2022-11-27T00:49:29;16.00;;;9.02;;
18340;SDS011;9296;48.084;16.352;2022-11-27T00:51:56;15.15;;;8.82;;
18340;SDS011;9296;48.084;16.352;2022-11-27T00:54:24;17.27;;;8.98;;
18340;SDS011;9296;48.084;16.352;2022-11-27T00:56:52;16.92;;;8.82;;
18340;SDS011;9296;48.084;16.352;2022-11-27T00:59:19;19.25;;;10.23;;
18340;SDS011;9296;48.084;16.352;2022-11-27T01:01:47;14.07;;;9.23;;
18340;SDS011;9296;48.084;16.352;2022-11-27T01:04:15;14.70;;;9.45;;
18340;SDS011;9296;48.084;16.352;2022-11-27T01:06:43;13.40;;;9.45;;
18340;SDS011;9296;48.084;16.352;2022-11-27T01:09:10;17.23;;;9.18;;
18340;SDS011;9296;48.084;16.352;2022-11-27T01:11:38;17.00;;;9.60;;
18340;SDS011;9296;48.084;16.352;2022-11-27T01:14:10;19.58;;;9.90;;
18340;SDS011;9296;48.084;16.352;2022-11-27T01:16:37;21.42;;;10.35;;
18340;SDS011;9296;48.084;16.352;2022-11-27T01:19:04;19.67;;;10.18;;
18340;SDS011;9296;48.084;16.352;2022-11-27T01:21:33;16.88;;;10.25;;
18340;SDS011;9296;48.084;16.352;2022-11-27T01:24:01;13.85;;;9.43;;
18340;SDS011;9296;48.084;16.352;2022-11-27T01:26:28;19.20;;;10.02;;
18340;SDS011;9296;48.084;16.352;2022-11-27T01:28:56;17.75;;;9.98;;
18340;SDS011;9296;48.084;16.352;2022-11-27T01:31:26;18.10;;;10.77;;
18340;SDS011;9296;48.084;16.352;2022-11-27T01:33:55;19.65;;;10.70;;
18340;SDS011;9296;48.084;16.352;2022-11-27T01:36:22;18.25;;;10.07;;
18340;SDS011;9296;48.084;16.352;2022-11-27T01:38:50;16.38;;;9.98;;
18340;SDS011;9296;48.084;16.352;2022-11-27T01:41:18;20.80;;;10.52;;
18340;SDS011;9296;48.084;16.352;2022-11-27T01:43:46;20.25;;;10.32;;
18340;SDS011;9296;48.084;16.352;2022-11-27T01:46:17;21.23;;;10.10;;
18340;SDS011;9296;48.084;16.352;2022-11-27T01:48:47;18.88;;;10.02;;
18340;SDS011;9296;48.084;16.352;2022-11-27T01:51:15;16.25;;;9.82;;
18340;SDS011;9296;48.084;16.352;2022-11-27T01:53:42;20.20;;;11.18;;
18340;SDS011;9296;48.084;16.352;2022-11-27T01:56:09;18.55;;;10.38;;
18340;SDS011;9296;48.084;16.352;2022-11-27T01:58:37;18.23;;;10.57;;
18340;SDS011;9296;48.084;16.352;2022-11-27T02:04:10;19.90;;;10.75;;
18340;SDS011;9296;48.084;16.352;2022-11-27T02:06:37;18.08;;;10.40;;
18340;SDS011;9296;48.084;16.352;2022-11-27T02:09:04;23.05;;;10.82;;
18340;SDS011;9296;48.084;16.352;2022-11-27T02:11:34;21.02;;;11.02;;
18340;SDS011;9296;48.084;16.352;2022-11-27T02:14:06;20.27;;;10.75;;
18340;SDS011;9296;48.084;16.352;2022-11-27T02:22:48;19.48;;;10.73;;
18340;SDS011;9296;48.084;16.352;2022-11-27T02:25:23;22.80;;;11.80;;
18340;SDS011;9296;48.084;16.352;2022-11-27T02:27:56;20.85;;;10.93;;
18340;SDS011;9296;48.084;16.352;2022-11-27T02:30:28;20.10;;;10.85;;
18340;SDS011;9296;48.084;16.352;2022-11-27T02:32:57;19.90;;;10.02;;
18340;SDS011;9296;48.084;16.352;2022-11-27T02:35:26;20.73;;;11.32;;
18340;SDS011;9296;48.084;16.352;2022-11-27T02:37:55;18.98;;;10.65;;
18340;SDS011;9296;48.084;16.352;2022-11-27T02:40:26;21.40;;;10.98;;
18340;SDS011;9296;48.084;16.352;2022-11-27T02:42:56;24.13;;;11.30;;
18340;SDS011;9296;48.084;16.352;2022-11-27T02:45:26;21.42;;;10.95;;
18340;SDS011;9296;48.084;16.352;2022-11-27T02:47:56;21.63;;;11.15;;
18340;SDS011;9296;48.084;16.352;2022-11-27T02:50:24;20.80;;;10.90;;
18340;SDS011;9296;48.084;16.352;2022-11-27T02:52:53;23.92;;;12.00;;
18340;SDS011;9296;48.084;16.352;2022-11-27T02:55:24;21.95;;;11.55;;
18340;SDS011;9296;48.084;16.352;2022-11-27T02:57:53;24.33;;;12.30;;
18340;SDS011;9296;48.084;16.352;2022-11-27T03:00:21;22.88;;;11.32;;
18340;SDS011;9296;48.084;16.352;2022-11-27T03:05:54;20.35;;;11.07;;
18340;SDS011;9296;48.084;16.352;2022-11-27T03:08:24;19.17;;;10.68;;
18340;SDS011;9296;48.084;16.352;2022-11-27T03:10:55;20.90;;;11.15;;
18340;SDS011;9296;48.084;16.352;2022-11-27T03:13:24;21.95;;;10.88;;
18340;SDS011;9296;48.084;16.352;2022-11-27T03:15:54;20.58;;;10.68;;
18340;SDS011;9296;48.084;16.352;2022-11-27T03:18:25;18.15;;;10.60;;
18340;SDS011;9296;48.084;16.352;2022-11-27T03:21:00;22.38;;;11.23;;
18340;SDS011;9296;48.084;16.352;2022-11-27T03:23:29;20.85;;;10.98;;
18340;SDS011;9296;48.084;16.352;2022-11-27T03:25:56;22.95;;;11.07;;
18340;SDS011;9296;48.084;16.352;2022-11-27T03:28:24;25.55;;;12.15;;
18340;SDS011;9296;48.084;16.352;2022-11-27T03:30:51;23.23;;;12.45;;
18340;SDS011;9296;48.084;16.352;2022-11-27T03:36:25;24.58;;;12.80;;
18340;SDS011;9296;48.084;16.352;2022-11-27T03:38:52;27.63;;;12.77;;
18340;SDS011;9296;48.084;16.352;2022-11-27T03:41:21;22.80;;;12.35;;
18340;SDS011;9296;48.084;16.352;2022-11-27T03:43:52;25.95;;;12.70;;
18340;SDS011;9296;48.084;16.352;2022-11-27T03:46:23;26.70;;;12.65;;
18340;SDS011;9296;48.084;16.352;2022-11-27T03:48:55;26.30;;;12.75;;
18340;SDS011;9296;48.084;16.352;2022-11-27T03:51:28;24.60;;;12.82;;
18340;SDS011;9296;48.084;16.352;2022-11-27T03:53:58;22.95;;;11.88;;
18340;SDS011;9296;48.084;16.352;2022-11-27T03:56:28;26.95;;;13.02;;
18340;SDS011;9296;48.084;16.352;2022-11-27T03:58:58;25.98;;;12.60;;
18340;SDS011;9296;48.084;16.352;2022-11-27T04:07:36;26.00;;;12.48;;
18340;SDS011;9296;48.084;16.352;2022-11-27T04:10:04;24.35;;;11.80;;
18340;SDS011;9296;48.084;16.352;2022-11-27T04:12:31;22.80;;;12.32;;
18340;SDS011;9296;48.084;16.352;2022-11-27T04:14:58;24.15;;;12.00;;
18340;SDS011;9296;48.084;16.352;2022-11-27T04:17:25;24.15;;;12.10;;
18340;SDS011;9296;48.084;16.352;2022-11-27T04:19:53;25.55;;;11.63;;
18340;SDS011;9296;48.084;16.352;2022-11-27T04:22:20;24.55;;;11.55;;
18340;SDS011;9296;48.084;16.352;2022-11-27T04:24:49;25.65;;;11.23;;
18340;SDS011;9296;48.084;16.352;2022-11-27T04:27:16;24.63;;;12.32;;
18340;SDS011;9296;48.084;16.352;2022-11-27T04:29:43;33.75;;;14.60;;
18340;SDS011;9296;48.084;16.352;2022-11-27T04:32:10;34.80;;;15.73;;
18340;SDS011;9296;48.084;16.352;2022-11-27T04:34:37;37.20;;;15.73;;
18340;SDS011;9296;48.084;16.352;2022-11-27T04:37:05;33.33;;;15.27;;
18340;SDS011;9296;48.084;16.352;2022-11-27T04:39:32;32.53;;;14.98;;
18340;SDS011;9296;48.084;16.352;2022-11-27T04:42:01;35.25;;;14.68;;
18340;SDS011;9296;48.084;16.352;2022-11-27T04:44:29;32.28;;;13.98;;
18340;SDS011;9296;48.084;16.352;2022-11-27T04:46:57;28.77;;;13.70;;
18340;SDS011;9296;48.084;16.352;2022-11-27T04:49:24;24.60;;;12.05;;
18340;SDS011;9296;48.084;16.352;2022-11-27T04:51:51;27.40;;;12.40;;
18340;SDS011;9296;48.084;16.352;2022-11-27T04:54:18;27.58;;;12.73;;
18340;SDS011;9296;48.084;16.352;2022-11-27T04:56:45;25.90;;;12.35;;
18340;SDS011;9296;48.084;16.352;2022-11-27T04:59:14;28.10;;;12.30;;
18340;SDS011;9296;48.084;16.352;2022-11-27T05:04:45;28.88;;;12.77;;
18340;SDS011;9296;48.084;16.352;2022-11-27T05:07:12;28.08;;;12.77;;
18340;SDS011;9296;48.084;16.352;2022-11-27T05:09:40;28.55;;;13.52;;
18340;SDS011;9296;48.084;16.352;2022-11-27T05:12:07;29.42;;;13.90;;
18340;SDS011;9296;48.084;16.352;2022-11-27T05:14:35;31.23;;;12.57;;
18340;SDS011;9296;48.084;16.352;2022-11-27T05:17:03;27.50;;;12.48;;
18340;SDS011;9296;48.084;16.352;2022-11-27T05:19:30;26.45;;;12.55;;
18340;SDS011;9296;48.084;16.352;2022-11-27T05:21:57;32.30;;;13.70;;
18340;SDS011;9296;48.084;16.352;2022-11-27T05:24:25;28.20;;;13.25;;
18340;SDS011;9296;48.084;16.352;2022-11-27T05:26:53;35.53;;;13.82;;
18340;SDS011;9296;48.084;16.352;2022-11-27T05:29:20;29.98;;;14.20;;
18340;SDS011;9296;48.084;16.352;2022-11-27T05:31:49;31.30;;;13.52;;
18340;SDS011;9296;48.084;16.352;2022-11-27T05:34:17;30.83;;;13.80;;
18340;SDS011;9296;48.084;16.352;2022-11-27T05:36:44;35.10;;;14.40;;
18340;SDS011;9296;48.084;16.352;2022-11-27T05:39:12;31.77;;;13.40;;
18340;SDS011;9296;48.084;16.352;2022-11-27T05:41:39;36.20;;;14.95;;
18340;SDS011;9296;48.084;16.352;2022-11-27T05:44:08;33.13;;;13.20;;
18340;SDS011;9296;48.084;16.352;2022-11-27T05:46:50;29.95;;;13.43;;
18340;SDS011;9296;48.084;16.352;2022-11-27T05:49:17;25.88;;;13.48;;
18340;SDS011;9296;48.084;16.352;2022-11-27T05:51:45;31.45;;;13.20;;
18340;SDS011;9296;48.084;16.352;2022-11-27T05:54:12;30.40;;;13.43;;
18340;SDS011;9296;48.084;16.352;2022-11-27T05:56:39;28.35;;;13.77;;
18340;SDS011;9296;48.084;16.352;2022-11-27T05:59:07;28.98;;;13.88;;
18340;SDS011;9296;48.084;16.352;2022-11-27T06:01:36;29.23;;;13.13;;
18340;SDS011;9296;48.084;16.352;2022-11-27T06:04:05;27.50;;;12.35;;
18340;SDS011;9296;48.084;16.352;2022-11-27T06:06:32;27.67;;;13.00;;
18340;SDS011;9296;48.084;16.352;2022-11-27T06:08:59;25.38;;;11.95;;
18340;SDS011;9296;48.084;16.352;2022-11-27T06:11:26;27.05;;;12.10;;
18340;SDS011;9296;48.084;16.352;2022-11-27T06:13:54;29.67;;;13.45;;
18340;SDS011;9296;48.084;16.352;2022-11-27T06:16:22;26.10;;;12.27;;
18340;SDS011;9296;48.084;16.352;2022-11-27T06:18:50;25.40;;;12.10;;
18340;SDS011;9296;48.084;16.352;2022-11-27T06:21:19;25.92;;;12.20;;
18340;SDS011;9296;48.084;16.352;2022-11-27T06:23:47;25.10;;;12.13;;
18340;SDS011;9296;48.084;16.352;2022-11-27T06:26:15;30.83;;;12.48;;
18340;SDS011;9296;48.084;16.352;2022-11-27T06:28:43;22.90;;;11.57;;
18340;SDS011;9296;48.084;16.352;2022-11-27T06:31:11;25.30;;;12.27;;
18340;SDS011;9296;48.084;16.352;2022-11-27T06:33:38;24.30;;;11.05;;
18340;SDS011;9296;48.084;16.352;2022-11-27T06:36:06;25.98;;;11.50;;
18340;SDS011;9296;48.084;16.352;2022-11-27T06:38:35;26.05;;;12.18;;
18340;SDS011;9296;48.084;16.352;2022-11-27T06:41:03;23.77;;;11.88;;
18340;SDS011;9296;48.084;16.352;2022-11-27T06:43:30;28.33;;;14.93;;
18340;SDS011;9296;48.084;16.352;2022-11-27T06:45:57;28.95;;;14.70;;
18340;SDS011;9296;48.084;16.352;2022-11-27T06:51:30;33.55;;;14.23;;
18340;SDS011;9296;48.084;16.352;2022-11-27T06:53:59;26.58;;;13.98;;
18340;SDS011;9296;48.084;16.352;2022-11-27T06:56:27;25.08;;;13.23;;
18340;SDS011;9296;48.084;16.352;2022-11-27T06:58:56;26.90;;;12.98;;
18340;SDS011;9296;48.084;16.352;2022-11-27T07:01:24;25.90;;;13.35;;
18340;SDS011;9296;48.084;16.352;2022-11-27T07:06:55;22.85;;;12.38;;
18340;SDS011;9296;48.084;16.352;2022-11-27T07:09:24;26.58;;;13.23;;
18340;SDS011;9296;48.084;16.352;2022-11-27T07:11:51;23.85;;;12.73;;
18340;SDS011;9296;48.084;16.352;2022-11-27T07:14:18;21.70;;;12.55;;
18340;SDS011;9296;48.084;16.352;2022-11-27T07:20:08;23.02;;;12.30;;
18340;SDS011;9296;48.084;16.352;2022-11-27T07:22:35;23.02;;;11.75;;
18340;SDS011;9296;48.084;16.352;2022-11-27T07:25:05;25.48;;;14.88;;
18340;SDS011;9296;48.084;16.352;2022-11-27T07:27:33;24.10;;;13.68;;
18340;SDS011;9296;48.084;16.352;2022-11-27T07:30:00;25.48;;;15.85;;
18340;SDS011;9296;48.084;16.352;2022-11-27T07:32:27;27.35;;;15.55;;
18340;SDS011;9296;48.084;16.352;2022-11-27T07:34:54;33.50;;;18.80;;
18340;SDS011;9296;48.084;16.352;2022-11-27T07:37:22;44.05;;;20.92;;
18340;SDS011;9296;48.084;16.352;2022-11-27T07:39:49;37.05;;;18.50;;
18340;SDS011;9296;48.084;16.352;2022-11-27T07:42:17;33.13;;;17.00;;
18340;SDS011;9296;48.084;16.352;2022-11-27T07:44:45;30.55;;;15.48;;
18340;SDS011;9296;48.084;16.352;2022-11-27T07:50:16;28.85;;;16.25;;
18340;SDS011;9296;48.084;16.352;2022-11-27T07:52:43;26.58;;;15.52;;
18340;SDS011;9296;48.084;16.352;2022-11-27T07:55:10;26.58;;;15.75;;
18340;SDS011;9296;48.084;16.352;2022-11-27T07:57:39;25.02;;;13.73;;
18340;SDS011;9296;48.084;16.352;2022-11-27T08:00:07;21.73;;;12.88;;
18340;SDS011;9296;48.084;16.352;2022-11-27T08:05:38;20.08;;;12.65;;
18340;SDS011;9296;48.084;16.352;2022-11-27T08:08:05;22.38;;;13.20;;
18340;SDS011;9296;48.084;16.352;2022-11-27T08:10:33;20.67;;;12.40;;
18340;SDS011;9296;48.084;16.352;2022-11-27T08:13:02;24.55;;;13.50;;
18340;SDS011;9296;48.084;16.352;2022-11-27T08:15:29;31.80;;;14.52;;
18340;SDS011;9296;48.084;16.352;2022-11-27T08:17:56;27.60;;;14.77;;
18340;SDS011;9296;48.084;16.352;2022-11-27T08:20:24;26.63;;;13.15;;
18340;SDS011;9296;48.084;16.352;2022-11-27T08:22:51;21.25;;;12.40;;
18340;SDS011;9296;48.084;16.352;2022-11-27T08:25:18;21.75;;;12.73;;
18340;SDS011;9296;48.084;16.352;2022-11-27T08:27:46;24.05;;;13.20;;
18340;SDS011;9296;48.084;16.352;2022-11-27T08:30:15;26.52;;;15.20;;
18340;SDS011;9296;48.084;16.352;2022-11-27T08:35:46;34.10;;;21.35;;
18340;SDS011;9296;48.084;16.352;2022-11-27T08:38:14;31.35;;;18.55;;
18340;SDS011;9296;48.084;16.352;2022-11-27T08:40:41;28.52;;;17.25;;
18340;SDS011;9296;48.084;16.352;2022-11-27T08:43:08;22.02;;;14.68;;
18340;SDS011;9296;48.084;16.352;2022-11-27T08:45:37;20.60;;;13.25;;
18340;SDS011;9296;48.084;16.352;2022-11-27T08:51:08;20.58;;;13.00;;
18340;SDS011;9296;48.084;16.352;2022-11-27T08:53:36;20.08;;;12.35;;
18340;SDS011;9296;48.084;16.352;2022-11-27T08:56:04;23.35;;;13.52;;
18340;SDS011;9296;48.084;16.352;2022-11-27T08:58:31;20.23;;;12.68;;
18340;SDS011;9296;48.084;16.352;2022-11-27T09:01:06;19.55;;;12.40;;
18340;SDS011;9296;48.084;16.352;2022-11-27T09:06:49;18.00;;;11.70;;
18340;SDS011;9296;48.084;16.352;2022-11-27T09:09:16;18.15;;;10.68;;
18340;SDS011;9296;48.084;16.352;2022-11-27T09:11:44;14.70;;;10.88;;
18340;SDS011;9296;48.084;16.352;2022-11-27T09:14:11;15.43;;;10.35;;
18340;SDS011;9296;48.084;16.352;2022-11-27T09:16:40;14.23;;;10.25;;
18340;SDS011;9296;48.084;16.352;2022-11-27T09:22:11;13.73;;;10.10;;
18340;SDS011;9296;48.084;16.352;2022-11-27T09:24:38;13.18;;;9.43;;
18340;SDS011;9296;48.084;16.352;2022-11-27T09:27:05;13.00;;;9.32;;
18340;SDS011;9296;48.084;16.352;2022-11-27T09:29:33;12.50;;;9.10;;
18340;SDS011;9296;48.084;16.352;2022-11-27T09:32:01;11.48;;;9.65;;
18340;SDS011;9296;48.084;16.352;2022-11-27T09:37:32;10.63;;;8.55;;
18340;SDS011;9296;48.084;16.352;2022-11-27T09:39:59;9.90;;;8.15;;
18340;SDS011;9296;48.084;16.352;2022-11-27T09:42:31;14.07;;;9.70;;
18340;SDS011;9296;48.084;16.352;2022-11-27T09:45:02;11.65;;;9.27;;
18340;SDS011;9296;48.084;16.352;2022-11-27T09:47:32;10.95;;;9.07;;
18340;SDS011;9296;48.084;16.352;2022-11-27T09:50:03;11.88;;;9.48;;
18340;SDS011;9296;48.084;16.352;2022-11-27T09:52:33;12.30;;;9.80;;
18340;SDS011;9296;48.084;16.352;2022-11-27T09:55:04;11.18;;;9.43;;
18340;SDS011;9296;48.084;16.352;2022-11-27T09:57:37;10.80;;;9.50;;
18340;SDS011;9296;48.084;16.352;2022-11-27T10:00:09;11.35;;;9.63;;
18340;SDS011;9296;48.084;16.352;2022-11-27T10:02:39;10.98;;;9.73;;
18340;SDS011;9296;48.084;16.352;2022-11-27T10:05:10;13.43;;;9.18;;
18340;SDS011;9296;48.084;16.352;2022-11-27T10:07:43;12.32;;;9.25;;
18340;SDS011;9296;48.084;16.352;2022-11-27T10:10:19;12.63;;;9.95;;
18340;SDS011;9296;48.084;16.352;2022-11-27T10:12:53;12.43;;;9.55;;
18340;SDS011;9296;48.084;16.352;2022-11-27T10:15:27;12.25;;;9.48;;
18340;SDS011;9296;48.084;16.352;2022-11-27T10:18:00;12.27;;;9.23;;
18340;SDS011;9296;48.084;16.352;2022-11-27T10:20:30;12.20;;;9.73;;
18340;SDS011;9296;48.084;16.352;2022-11-27T10:23:02;11.73;;;10.48;;
18340;SDS011;9296;48.084;16.352;2022-11-27T10:25:32;15.43;;;11.15;;
18340;SDS011;9296;48.084;16.352;2022-11-27T10:28:02;13.98;;;9.50;;
18340;SDS011;9296;48.084;16.352;2022-11-27T10:30:32;11.50;;;8.75;;
18340;SDS011;9296;48.084;16.352;2022-11-27T10:33:06;12.13;;;8.30;;
18340;SDS011;9296;48.084;16.352;2022-11-27T10:35:39;13.23;;;8.60;;
18340;SDS011;9296;48.084;16.352;2022-11-27T10:38:08;12.63;;;8.55;;
18340;SDS011;9296;48.084;16.352;2022-11-27T10:40:38;10.50;;;7.63;;
18340;SDS011;9296;48.084;16.352;2022-11-27T10:43:08;11.80;;;7.70;;
18340;SDS011;9296;48.084;16.352;2022-11-27T10:45:37;11.18;;;8.10;;
18340;SDS011;9296;48.084;16.352;2022-11-27T11:08:39;14.32;;;7.88;;
18340;SDS011;9296;48.084;16.352;2022-11-27T11:11:07;14.02;;;8.23;;
18340;SDS011;9296;48.084;16.352;2022-11-27T11:13:42;14.50;;;8.68;;
18340;SDS011;9296;48.084;16.352;2022-11-27T11:16:14;13.20;;;7.57;;
18340;SDS011;9296;48.084;16.352;2022-11-27T11:18:43;10.80;;;7.00;;
18340;SDS011;9296;48.084;16.352;2022-11-27T11:21:12;11.52;;;7.38;;
18340;SDS011;9296;48.084;16.352;2022-11-27T11:23:42;14.23;;;7.97;;
18340;SDS011;9296;48.084;16.352;2022-11-27T11:26:12;11.43;;;7.28;;
18340;SDS011;9296;48.084;16.352;2022-11-27T11:28:43;13.73;;;8.13;;
18340;SDS011;9296;48.084;16.352;2022-11-27T11:31:14;14.23;;;7.30;;
18340;SDS011;9296;48.084;16.352;2022-11-27T11:33:46;14.25;;;7.43;;
18340;SDS011;9296;48.084;16.352;2022-11-27T11:36:15;11.55;;;7.20;;
18340;SDS011;9296;48.084;16.352;2022-11-27T11:38:44;12.93;;;7.00;;
18340;SDS011;9296;48.084;16.352;2022-11-27T11:41:12;13.07;;;6.80;;
18340;SDS011;9296;48.084;16.352;2022-11-27T11:43:51;15.23;;;6.75;;
18340;SDS011;9296;48.084;16.352;2022-11-27T11:46:19;10.05;;;6.18;;
18340;SDS011;9296;48.084;16.352;2022-11-27T11:51:48;13.32;;;6.63;;
18340;SDS011;9296;48.084;16.352;2022-11-27T11:54:25;11.73;;;5.88;;
18340;SDS011;9296;48.084;16.352;2022-11-27T11:56:57;11.02;;;6.10;;
18340;SDS011;9296;48.084;16.352;2022-11-27T11:59:27;13.38;;;6.35;;
18340;SDS011;9296;48.084;16.352;2022-11-27T12:02:03;8.90;;;5.65;;
18340;SDS011;9296;48.084;16.352;2022-11-27T12:04:37;11.50;;;6.13;;
18340;SDS011;9296;48.084;16.352;2022-11-27T12:07:09;10.85;;;5.40;;
18340;SDS011;9296;48.084;16.352;2022-11-27T12:09:47;10.88;;;5.50;;
18340;SDS011;9296;48.084;16.352;2022-11-27T12:12:19;12.73;;;5.60;;
18340;SDS011;9296;48.084;16.352;2022-11-27T12:14:49;8.15;;;4.90;;
18340;SDS011;9296;48.084;16.352;2022-11-27T12:17:20;10.80;;;5.00;;
18340;SDS011;9296;48.084;16.352;2022-11-27T12:23:04;8.52;;;4.13;;
18340;SDS011;9296;48.084;16.352;2022-11-27T12:25:40;5.28;;;3.30;;
18340;SDS011;9296;48.084;16.352;2022-11-27T12:28:14;5.20;;;3.45;;
18340;SDS011;9296;48.084;16.352;2022-11-27T12:30:45;4.53;;;2.72;;
18340;SDS011;9296;48.084;16.352;2022-11-27T12:42:28;7.15;;;4.65;;
18340;SDS011;9296;48.084;16.352;2022-11-27T12:45:00;8.75;;;4.60;;
18340;SDS011;9296;48.084;16.352;2022-11-27T12:47:30;6.53;;;4.25;;
18340;SDS011;9296;48.084;16.352;2022-11-27T12:50:03;7.90;;;4.20;;
18340;SDS011;9296;48.084;16.352;2022-11-27T12:52:34;14.70;;;8.48;;
18340;SDS011;9296;48.084;16.352;2022-11-27T12:55:05;12.80;;;7.43;;
18340;SDS011;9296;48.084;16.352;2022-11-27T12:57:39;8.75;;;4.85;;
18340;SDS011;9296;48.084;16.352;2022-11-27T13:00:12;7.07;;;4.43;;
18340;SDS011;9296;48.084;16.352;2022-11-27T13:02:42;9.55;;;4.28;;
18340;SDS011;9296;48.084;16.352;2022-11-27T13:05:11;11.35;;;5.00;;
18340;SDS011;9296;48.084;16.352;2022-11-27T13:07:40;6.53;;;4.25;;
18340;SDS011;9296;48.084;16.352;2022-11-27T13:10:16;8.43;;;4.45;;
18340;SDS011;9296;48.084;16.352;2022-11-27T13:12:49;15.07;;;8.57;;
18340;SDS011;9296;48.084;16.352;2022-11-27T13:15:18;15.68;;;9.60;;
18340;SDS011;9296;48.084;16.352;2022-11-27T13:17:48;6.68;;;3.15;;
18340;SDS011;9296;48.084;16.352;2022-11-27T13:20:19;13.77;;;7.50;;
18340;SDS011;9296;48.084;16.352;2022-11-27T13:22:47;20.00;;;10.82;;
18340;SDS011;9296;48.084;16.352;2022-11-27T13:25:15;16.05;;;8.68;;
18340;SDS011;9296;48.084;16.352;2022-11-27T13:27:43;12.55;;;7.00;;
18340;SDS011;9296;48.084;16.352;2022-11-27T13:30:17;6.45;;;3.97;;
18340;SDS011;9296;48.084;16.352;2022-11-27T13:32:46;10.23;;;5.30;;
18340;SDS011;9296;48.084;16.352;2022-11-27T13:38:18;15.00;;;7.78;;
18340;SDS011;9296;48.084;16.352;2022-11-27T13:40:48;17.30;;;9.85;;
18340;SDS011;9296;48.084;16.352;2022-11-27T13:43:20;13.63;;;7.93;;
18340;SDS011;9296;48.084;16.352;2022-11-27T13:45:58;12.85;;;7.95;;
18340;SDS011;9296;48.084;16.352;2022-11-27T13:48:28;18.67;;;10.93;;
18340;SDS011;9296;48.084;16.352;2022-11-27T13:50:56;15.60;;;9.05;;
18340;SDS011;9296;48.084;16.352;2022-11-27T13:53:31;26.08;;;14.05;;
18340;SDS011;9296;48.084;16.352;2022-11-27T13:55:59;35.53;;;18.88;;
18340;SDS011;9296;48.084;16.352;2022-11-27T13:58:27;39.22;;;20.05;;
18340;SDS011;9296;48.084;16.352;2022-11-27T14:00:56;26.77;;;12.98;;
18340;SDS011;9296;48.084;16.352;2022-11-27T14:03:24;31.95;;;15.07;;
18340;SDS011;9296;48.084;16.352;2022-11-27T14:05:52;22.85;;;11.48;;
18340;SDS011;9296;48.084;16.352;2022-11-27T14:08:20;23.10;;;12.73;;
18340;SDS011;9296;48.084;16.352;2022-11-27T14:10:50;25.08;;;14.10;;
18340;SDS011;9296;48.084;16.352;2022-11-27T14:13:18;19.30;;;11.25;;
18340;SDS011;9296;48.084;16.352;2022-11-27T14:15:55;18.02;;;10.25;;
18340;SDS011;9296;48.084;16.352;2022-11-27T14:18:25;24.92;;;12.52;;
18340;SDS011;9296;48.084;16.352;2022-11-27T14:23:56;31.90;;;16.27;;
18340;SDS011;9296;48.084;16.352;2022-11-27T14:26:29;18.48;;;8.50;;
18340;SDS011;9296;48.084;16.352;2022-11-27T14:28:57;23.40;;;9.93;;
18340;SDS011;9296;48.084;16.352;2022-11-27T14:31:27;24.40;;;10.48;;
18340;SDS011;9296;48.084;16.352;2022-11-27T14:36:59;14.68;;;6.90;;
18340;SDS011;9296;48.084;16.352;2022-11-27T14:39:27;10.32;;;5.80;;
18340;SDS011;9296;48.084;16.352;2022-11-27T14:41:55;13.73;;;5.63;;
18340;SDS011;9296;48.084;16.352;2022-11-27T14:44:22;10.82;;;6.13;;
18340;SDS011;9296;48.084;16.352;2022-11-27T14:46:51;10.43;;;6.22;;
18340;SDS011;9296;48.084;16.352;2022-11-27T14:52:22;10.82;;;5.90;;
18340;SDS011;9296;48.084;16.352;2022-11-27T14:54:49;9.68;;;5.45;;
18340;SDS011;9296;48.084;16.352;2022-11-27T14:57:19;11.70;;;5.43;;
18340;SDS011;9296;48.084;16.352;2022-11-27T14:59:58;11.65;;;5.53;;
18340;SDS011;9296;48.084;16.352;2022-11-27T15:02:27;11.80;;;5.82;;
18340;SDS011;9296;48.084;16.352;2022-11-27T15:05:00;12.02;;;5.40;;
18340;SDS011;9296;48.084;16.352;2022-11-27T15:07:27;9.50;;;5.38;;
18340;SDS011;9296;48.084;16.352;2022-11-27T15:09:56;11.90;;;5.97;;
18340;SDS011;9296;48.084;16.352;2022-11-27T15:12:24;9.98;;;5.22;;
18340;SDS011;9296;48.084;16.352;2022-11-27T15:14:54;10.43;;;5.57;;
18340;SDS011;9296;48.084;16.352;2022-11-27T15:17:23;11.80;;;6.00;;
18340;SDS011;9296;48.084;16.352;2022-11-27T15:22:56;12.70;;;6.90;;
18340;SDS011;9296;48.084;16.352;2022-11-27T15:28:28;12.27;;;7.32;;
18340;SDS011;9296;48.084;16.352;2022-11-27T15:30:56;14.88;;;8.30;;
18340;SDS011;9296;48.084;16.352;2022-11-27T15:33:24;15.82;;;7.63;;
18340;SDS011;9296;48.084;16.352;2022-11-27T15:39:04;14.88;;;7.18;;
18340;SDS011;9296;48.084;16.352;2022-11-27T15:41:37;12.23;;;6.72;;
18340;SDS011;9296;48.084;16.352;2022-11-27T15:44:04;12.18;;;7.75;;
18340;SDS011;9296;48.084;16.352;2022-11-27T15:46:32;14.10;;;7.32;;
18340;SDS011;9296;48.084;16.352;2022-11-27T15:49:00;14.40;;;8.23;;
18340;SDS011;9296;48.084;16.352;2022-11-27T15:54:32;17.13;;;8.50;;
18340;SDS011;9296;48.084;16.352;2022-11-27T15:57:00;17.70;;;8.30;;
18340;SDS011;9296;48.084;16.352;2022-11-27T15:59:27;14.75;;;8.07;;
18340;SDS011;9296;48.084;16.352;2022-11-27T16:01:54;20.83;;;10.10;;
18340;SDS011;9296;48.084;16.352;2022-11-27T16:07:28;17.50;;;8.98;;
18340;SDS011;9296;48.084;16.352;2022-11-27T16:09:57;16.38;;;8.73;;
18340;SDS011;9296;48.084;16.352;2022-11-27T16:12:24;13.90;;;8.45;;
18340;SDS011;9296;48.084;16.352;2022-11-27T16:14:52;17.17;;;9.15;;
18340;SDS011;9296;48.084;16.352;2022-11-27T16:17:19;14.43;;;9.02;;
18340;SDS011;9296;48.084;16.352;2022-11-27T16:19:46;17.20;;;10.00;;
18340;SDS011;9296;48.084;16.352;2022-11-27T16:22:14;15.90;;;9.68;;
18340;SDS011;9296;48.084;16.352;2022-11-27T16:24:41;15.60;;;9.25;;
18340;SDS011;9296;48.084;16.352;2022-11-27T16:27:10;14.70;;;9.52;;
18340;SDS011;9296;48.084;16.352;2022-11-27T16:29:37;17.42;;;10.60;;
18340;SDS011;9296;48.084;16.352;2022-11-27T16:32:05;16.48;;;10.10;;
18340;SDS011;9296;48.084;16.352;2022-11-27T16:34:32;18.77;;;9.65;;
18340;SDS011;9296;48.084;16.352;2022-11-27T16:37:00;17.63;;;9.48;;
18340;SDS011;9296;48.084;16.352;2022-11-27T16:39:27;17.58;;;9.80;;
18340;SDS011;9296;48.084;16.352;2022-11-27T16:41:55;21.67;;;10.60;;
18340;SDS011;9296;48.084;16.352;2022-11-27T16:44:23;16.48;;;8.98;;